sensor_id;sensor_type;location;lat;lon;timestamp;pressure;altitude;pressure_sealevel;temperature;humidity
3960;BME280;1994;48.640;8.894;2023-03-04T00:02:08;96596.19;;;1.99;78.76
3960;BME280;1994;48.640;8.894;2023-03-04T00:04:34;96601.97;;;1.93;79.03
3960;BME280;1994;48.640;8.894;2023-03-04T00:06:59;96602.66;;;1.87;79.85
3960;BME280;1994;48.640;8.894;2023-03-04T00:09:26;96601.63;;;1.96;79.29
3960;BME280;1994;48.640;8.894;2023-03-04T00:11:52;96604.81;;;1.98;78.88
3960;BME280;1994;48.640;8.894;2023-03-04T00:14:17;96597.19;;;1.90;78.30
3960;BME280;1994;48.640;8.894;2023-03-04T00:16:43;96605.88;;;1.81;77.95
3960;BME280;1994;48.640;8.894;2023-03-04T00:19:10;96598.53;;;1.78;78.17
3960;BME280;1994;48.640;8.894;2023-03-04T00:21:36;96608.44;;;1.81;78.63
3960;BME280;1994;48.640;8.894;2023-03-04T00:24:01;96603.31;;;1.81;78.82
3960;BME280;1994;48.640;8.894;2023-03-04T00:26:30;96600.13;;;1.79;79.00
3960;BME280;1994;48.640;8.894;2023-03-04T00:28:55;96596.63;;;1.80;79.06
3960;BME280;1994;48.640;8.894;2023-03-04T00:31:21;96597.63;;;1.71;78.43
3960;BME280;1994;48.640;8.894;2023-03-04T00:33:47;96598.91;;;1.67;78.18
3960;BME280;1994;48.640;8.894;2023-03-04T00:36:15;96602.47;;;1.58;77.65
3960;BME280;1994;48.640;8.894;2023-03-04T00:38:44;96598.97;;;1.59;77.99
3960;BME280;1994;48.640;8.894;2023-03-04T00:41:10;96597.44;;;1.42;78.76
3960;BME280;1994;48.640;8.894;2023-03-04T00:43:36;96601.88;;;1.48;78.99
3960;BME280;1994;48.640;8.894;2023-03-04T00:46:02;96595.13;;;1.55;78.56
3960;BME280;1994;48.640;8.894;2023-03-04T00:48:27;96600.53;;;1.60;78.34
3960;BME280;1994;48.640;8.894;2023-03-04T00:50:53;96598.97;;;1.59;78.32
3960;BME280;1994;48.640;8.894;2023-03-04T00:53:20;96599.56;;;1.61;78.26
3960;BME280;1994;48.640;8.894;2023-03-04T00:55:45;96593.03;;;1.58;78.51
3960;BME280;1994;48.640;8.894;2023-03-04T00:58:11;96597.38;;;1.58;78.41
3960;BME280;1994;48.640;8.894;2023-03-04T01:00:37;96594.53;;;1.45;78.90
3960;BME280;1994;48.640;8.894;2023-03-04T01:03:03;96595.34;;;1.37;78.78
3960;BME280;1994;48.640;8.894;2023-03-04T01:05:29;96594.91;;;1.34;79.17
3960;BME280;1994;48.640;8.894;2023-03-04T01:07:54;96586.63;;;1.32;79.55
3960;BME280;1994;48.640;8.894;2023-03-04T01:10:23;96591.72;;;1.32;80.23
3960;BME280;1994;48.640;8.894;2023-03-04T01:12:49;96587.25;;;1.34;79.50
3960;BME280;1994;48.640;8.894;2023-03-04T01:15:14;96588.22;;;1.33;78.92
3960;BME280;1994;48.640;8.894;2023-03-04T01:17:40;96593.31;;;1.33;79.08
3960;BME280;1994;48.640;8.894;2023-03-04T01:20:11;96595.50;;;1.36;78.78
3960;BME280;1994;48.640;8.894;2023-03-04T01:22:37;96590.47;;;1.28;78.89
3960;BME280;1994;48.640;8.894;2023-03-04T01:25:06;96584.88;;;1.24;79.28
3960;BME280;1994;48.640;8.894;2023-03-04T01:27:32;96588.53;;;1.30;78.85
3960;BME280;1994;48.640;8.894;2023-03-04T01:29:57;96580.25;;;1.28;79.85
3960;BME280;1994;48.640;8.894;2023-03-04T01:32:26;96587.66;;;1.07;81.32
3960;BME280;1994;48.640;8.894;2023-03-04T01:34:52;96581.28;;;1.03;81.55
3960;BME280;1994;48.640;8.894;2023-03-04T01:37:20;96596.28;;;0.90;82.21
3960;BME280;1994;48.640;8.894;2023-03-04T01:39:46;96585.63;;;0.86;82.66
3960;BME280;1994;48.640;8.894;2023-03-04T01:42:25;96584.66;;;0.95;82.36
3960;BME280;1994;48.640;8.894;2023-03-04T01:44:52;96584.16;;;0.92;82.75
3960;BME280;1994;48.640;8.894;2023-03-04T01:47:19;96580.03;;;0.99;81.82
3960;BME280;1994;48.640;8.894;2023-03-04T01:49:55;96576.69;;;0.90;80.34
3960;BME280;1994;48.640;8.894;2023-03-04T01:52:24;96583.56;;;0.82;80.22
3960;BME280;1994;48.640;8.894;2023-03-04T01:54:51;96579.59;;;0.79;80.01
3960;BME280;1994;48.640;8.894;2023-03-04T01:57:21;96578.28;;;0.83;79.99
3960;BME280;1994;48.640;8.894;2023-03-04T02:00:36;96571.75;;;0.89;79.55
3960;BME280;1994;48.640;8.894;2023-03-04T02:03:10;96569.50;;;0.86;79.15
3960;BME280;1994;48.640;8.894;2023-03-04T02:05:41;96565.22;;;0.86;79.22
3960;BME280;1994;48.640;8.894;2023-03-04T02:08:11;96561.88;;;0.86;79.03
3960;BME280;1994;48.640;8.894;2023-03-04T02:10:39;96566.34;;;0.84;79.59
3960;BME280;1994;48.640;8.894;2023-03-04T02:13:06;96567.00;;;0.78;80.59
3960;BME280;1994;48.640;8.894;2023-03-04T02:15:32;96566.06;;;0.71;80.95
3960;BME280;1994;48.640;8.894;2023-03-04T02:17:58;96561.91;;;0.62;81.79
3960;BME280;1994;48.640;8.894;2023-03-04T02:26:17;96562.56;;;0.72;81.69
3960;BME280;1994;48.640;8.894;2023-03-04T02:28:48;96560.97;;;0.71;82.08
3960;BME280;1994;48.640;8.894;2023-03-04T02:31:38;96553.94;;;0.73;80.63
3960;BME280;1994;48.640;8.894;2023-03-04T02:34:32;96562.84;;;0.69;79.75
3960;BME280;1994;48.640;8.894;2023-03-04T02:36:59;96560.00;;;0.64;79.68
3960;BME280;1994;48.640;8.894;2023-03-04T02:39:39;96560.66;;;0.58;79.53
3960;BME280;1994;48.640;8.894;2023-03-04T02:42:06;96558.44;;;0.55;79.71
3960;BME280;1994;48.640;8.894;2023-03-04T02:44:36;96556.84;;;0.46;79.43
3960;BME280;1994;48.640;8.894;2023-03-04T02:47:06;96556.50;;;0.49;79.12
3960;BME280;1994;48.640;8.894;2023-03-04T02:49:34;96558.13;;;0.50;79.13
3960;BME280;1994;48.640;8.894;2023-03-04T02:52:14;96561.28;;;0.52;79.16
3960;BME280;1994;48.640;8.894;2023-03-04T02:54:41;96566.41;;;0.44;79.00
3960;BME280;1994;48.640;8.894;2023-03-04T02:57:10;96562.25;;;0.43;78.98
3960;BME280;1994;48.640;8.894;2023-03-04T02:59:45;96555.44;;;0.35;79.21
3960;BME280;1994;48.640;8.894;2023-03-04T03:02:11;96549.19;;;0.38;79.63
3960;BME280;1994;48.640;8.894;2023-03-04T03:04:38;96559.06;;;0.41;78.97
3960;BME280;1994;48.640;8.894;2023-03-04T03:07:10;96562.56;;;0.40;78.97
3960;BME280;1994;48.640;8.894;2023-03-04T03:09:38;96566.06;;;0.31;78.87
3960;BME280;1994;48.640;8.894;2023-03-04T03:12:06;96556.19;;;0.36;78.73
3960;BME280;1994;48.640;8.894;2023-03-04T03:14:31;96560.81;;;0.32;79.08
3960;BME280;1994;48.640;8.894;2023-03-04T03:16:57;96558.75;;;0.36;78.71
3960;BME280;1994;48.640;8.894;2023-03-04T03:19:23;96561.94;;;0.30;80.12
3960;BME280;1994;48.640;8.894;2023-03-04T03:21:49;96560.81;;;0.16;81.35
3960;BME280;1994;48.640;8.894;2023-03-04T03:24:14;96564.50;;;0.06;82.00
3960;BME280;1994;48.640;8.894;2023-03-04T03:26:41;96566.38;;;-0.04;83.06
3960;BME280;1994;48.640;8.894;2023-03-04T03:29:09;96567.34;;;-0.05;83.16
3960;BME280;1994;48.640;8.894;2023-03-04T03:31:35;96569.59;;;0.06;82.95
3960;BME280;1994;48.640;8.894;2023-03-04T03:34:01;96566.06;;;0.07;82.62
3960;BME280;1994;48.640;8.894;2023-03-04T03:36:29;96562.41;;;0.01;82.92
3960;BME280;1994;48.640;8.894;2023-03-04T03:38:55;96563.03;;;-0.05;83.22
3960;BME280;1994;48.640;8.894;2023-03-04T03:41:21;96564.13;;;-0.07;83.63
3960;BME280;1994;48.640;8.894;2023-03-04T03:43:46;96565.41;;;-0.03;84.14
3960;BME280;1994;48.640;8.894;2023-03-04T03:46:12;96556.53;;;0.01;84.39
3960;BME280;1994;48.640;8.894;2023-03-04T03:48:38;96554.59;;;0.03;84.47
3960;BME280;1994;48.640;8.894;2023-03-04T03:51:04;96554.94;;;0.08;83.70
3960;BME280;1994;48.640;8.894;2023-03-04T03:53:29;96555.22;;;0.05;82.76
3960;BME280;1994;48.640;8.894;2023-03-04T03:55:55;96563.69;;;0.05;82.59
3960;BME280;1994;48.640;8.894;2023-03-04T03:58:21;96559.06;;;0.01;81.99
3960;BME280;1994;48.640;8.894;2023-03-04T04:00:50;96561.63;;;0.01;81.67
3960;BME280;1994;48.640;8.894;2023-03-04T04:03:16;96565.13;;;0.00;81.58
3960;BME280;1994;48.640;8.894;2023-03-04T04:05:42;96563.03;;;-0.05;81.24
3960;BME280;1994;48.640;8.894;2023-03-04T04:08:16;96568.94;;;-0.04;81.02
3960;BME280;1994;48.640;8.894;2023-03-04T04:10:42;96555.22;;;-0.11;80.96
3960;BME280;1994;48.640;8.894;2023-03-04T04:13:11;96557.13;;;-0.21;80.38
3960;BME280;1994;48.640;8.894;2023-03-04T04:15:37;96570.00;;;-0.22;80.23
3960;BME280;1994;48.640;8.894;2023-03-04T04:18:05;96560.59;;;-0.22;80.66
3960;BME280;1994;48.640;8.894;2023-03-04T04:20:31;96561.13;;;-0.18;80.38
3960;BME280;1994;48.640;8.894;2023-03-04T04:22:56;96559.69;;;-0.13;80.43
3960;BME280;1994;48.640;8.894;2023-03-04T04:25:22;96563.66;;;-0.11;80.31
3960;BME280;1994;48.640;8.894;2023-03-04T04:27:48;96557.75;;;-0.11;80.23
3960;BME280;1994;48.640;8.894;2023-03-04T04:30:14;96559.03;;;-0.07;80.23
3960;BME280;1994;48.640;8.894;2023-03-04T04:32:40;96552.66;;;-0.11;78.93
3960;BME280;1994;48.640;8.894;2023-03-04T04:35:06;96556.50;;;-0.15;79.45
3960;BME280;1994;48.640;8.894;2023-03-04T04:37:32;96559.03;;;-0.15;79.13
3960;BME280;1994;48.640;8.894;2023-03-04T04:39:58;96564.13;;;-0.15;78.85
3960;BME280;1994;48.640;8.894;2023-03-04T04:42:24;96553.16;;;-0.16;79.19
3960;BME280;1994;48.640;8.894;2023-03-04T04:44:50;96552.03;;;-0.21;79.67
3960;BME280;1994;48.640;8.894;2023-03-04T04:47:17;96552.34;;;-0.24;79.38
3960;BME280;1994;48.640;8.894;2023-03-04T04:49:43;96553.25;;;-0.33;78.91
3960;BME280;1994;48.640;8.894;2023-03-04T04:52:09;96548.16;;;-0.33;78.53
3960;BME280;1994;48.640;8.894;2023-03-04T04:54:35;96554.56;;;-0.29;78.73
3960;BME280;1994;48.640;8.894;2023-03-04T04:57:01;96554.56;;;-0.29;78.98
3960;BME280;1994;48.640;8.894;2023-03-04T04:59:26;96545.97;;;-0.28;79.05
3960;BME280;1994;48.640;8.894;2023-03-04T05:01:52;96557.75;;;-0.27;79.28
3960;BME280;1994;48.640;8.894;2023-03-04T05:04:18;96564.09;;;-0.23;78.94
3960;BME280;1994;48.640;8.894;2023-03-04T05:06:44;96565.06;;;-0.32;79.10
3960;BME280;1994;48.640;8.894;2023-03-04T05:09:11;96563.44;;;-0.33;79.03
3960;BME280;1994;48.640;8.894;2023-03-04T05:11:37;96563.16;;;-0.30;79.09
3960;BME280;1994;48.640;8.894;2023-03-04T05:14:02;96563.44;;;-0.33;79.14
3960;BME280;1994;48.640;8.894;2023-03-04T05:16:28;96565.69;;;-0.38;78.15
3960;BME280;1994;48.640;8.894;2023-03-04T05:18:54;96558.66;;;-0.44;77.98
3960;BME280;1994;48.640;8.894;2023-03-04T05:21:20;96562.47;;;-0.48;77.82
3960;BME280;1994;48.640;8.894;2023-03-04T05:23:45;96559.25;;;-0.58;77.86
3960;BME280;1994;48.640;8.894;2023-03-04T05:26:16;96564.00;;;-0.55;77.69
3960;BME280;1994;48.640;8.894;2023-03-04T05:28:43;96562.13;;;-0.53;77.90
3960;BME280;1994;48.640;8.894;2023-03-04T05:31:12;96556.38;;;-0.55;78.04
3960;BME280;1994;48.640;8.894;2023-03-04T05:33:38;96557.66;;;-0.59;77.63
3960;BME280;1994;48.640;8.894;2023-03-04T05:36:05;96555.41;;;-0.62;78.03
3960;BME280;1994;48.640;8.894;2023-03-04T05:38:34;96555.41;;;-0.62;78.68
3960;BME280;1994;48.640;8.894;2023-03-04T05:41:06;96560.97;;;-0.66;79.63
3960;BME280;1994;48.640;8.894;2023-03-04T05:43:33;96565.81;;;-0.89;81.41
3960;BME280;1994;48.640;8.894;2023-03-04T05:46:02;96565.09;;;-1.07;82.68
3960;BME280;1994;48.640;8.894;2023-03-04T05:48:28;96571.03;;;-1.24;83.66
3960;BME280;1994;48.640;8.894;2023-03-04T05:50:59;96560.25;;;-1.18;83.63
3960;BME280;1994;48.640;8.894;2023-03-04T05:53:28;96560.56;;;-1.21;84.48
3960;BME280;1994;48.640;8.894;2023-03-04T05:55:55;96566.72;;;-1.23;85.02
3960;BME280;1994;48.640;8.894;2023-03-04T05:58:23;96574.22;;;-1.22;85.43
3960;BME280;1994;48.640;8.894;2023-03-04T06:00:52;96567.63;;;-1.07;84.05
3960;BME280;1994;48.640;8.894;2023-03-04T06:03:20;96567.31;;;-1.04;84.07
3960;BME280;1994;48.640;8.894;2023-03-04T06:05:49;96573.06;;;-1.02;83.15
3960;BME280;1994;48.640;8.894;2023-03-04T06:08:18;96576.09;;;-0.98;83.04
3960;BME280;1994;48.640;8.894;2023-03-04T06:10:44;96581.38;;;-0.92;83.22
3960;BME280;1994;48.640;8.894;2023-03-04T06:13:10;96583.44;;;-0.87;82.89
3960;BME280;1994;48.640;8.894;2023-03-04T06:15:36;96595.53;;;-0.89;81.96
3960;BME280;1994;48.640;8.894;2023-03-04T06:18:03;96586.13;;;-0.89;81.80
3960;BME280;1994;48.640;8.894;2023-03-04T06:20:29;96583.94;;;-0.84;81.50
3960;BME280;1994;48.640;8.894;2023-03-04T06:22:55;96595.69;;;-0.83;81.15
3960;BME280;1994;48.640;8.894;2023-03-04T06:25:21;96585.84;;;-0.86;80.52
3960;BME280;1994;48.640;8.894;2023-03-04T06:27:47;96597.97;;;-0.80;80.37
3960;BME280;1994;48.640;8.894;2023-03-04T06:30:14;96595.09;;;-0.77;80.54
3960;BME280;1994;48.640;8.894;2023-03-04T06:32:39;96601.97;;;-0.69;80.27
3960;BME280;1994;48.640;8.894;2023-03-04T06:35:10;96601.53;;;-0.57;80.02
3960;BME280;1994;48.640;8.894;2023-03-04T06:37:36;96610.44;;;-0.61;79.95
3960;BME280;1994;48.640;8.894;2023-03-04T06:40:03;96607.31;;;-0.47;79.57
3960;BME280;1994;48.640;8.894;2023-03-04T06:42:29;96618.75;;;-0.51;79.70
3960;BME280;1994;48.640;8.894;2023-03-04T06:44:55;96626.06;;;-0.48;79.59
3960;BME280;1994;48.640;8.894;2023-03-04T06:47:21;96616.38;;;-0.44;79.31
3960;BME280;1994;48.640;8.894;2023-03-04T06:49:46;96621.53;;;-0.28;78.91
3960;BME280;1994;48.640;8.894;2023-03-04T06:52:12;96618.22;;;-0.21;78.86
3960;BME280;1994;48.640;8.894;2023-03-04T06:54:38;96629.03;;;-0.19;78.80
3960;BME280;1994;48.640;8.894;2023-03-04T06:57:05;96626.72;;;0.03;78.16
3960;BME280;1994;48.640;8.894;2023-03-04T06:59:31;96628.63;;;0.17;77.60
3960;BME280;1994;48.640;8.894;2023-03-04T07:02:00;96629.44;;;0.18;77.09
3960;BME280;1994;48.640;8.894;2023-03-04T07:04:26;96626.88;;;0.26;77.34
3960;BME280;1994;48.640;8.894;2023-03-04T07:06:51;96623.72;;;0.40;76.84
3960;BME280;1994;48.640;8.894;2023-03-04T07:09:17;96632.63;;;0.36;77.69
3960;BME280;1994;48.640;8.894;2023-03-04T07:11:44;96628.81;;;0.40;77.92
3960;BME280;1994;48.640;8.894;2023-03-04T07:14:10;96629.75;;;0.31;79.03
3960;BME280;1994;48.640;8.894;2023-03-04T07:16:36;96623.72;;;0.56;78.69
3960;BME280;1994;48.640;8.894;2023-03-04T07:19:02;96632.66;;;0.60;78.85
3960;BME280;1994;48.640;8.894;2023-03-04T07:21:31;96631.34;;;0.80;78.36
3960;BME280;1994;48.640;8.894;2023-03-04T07:23:57;96627.38;;;0.77;79.22
3960;BME280;1994;48.640;8.894;2023-03-04T07:26:22;96634.50;;;1.14;78.97
3960;BME280;1994;48.640;8.894;2023-03-04T07:28:48;96631.00;;;1.15;79.22
3960;BME280;1994;48.640;8.894;2023-03-04T07:33:45;96635.38;;;1.45;78.89
3960;BME280;1994;48.640;8.894;2023-03-04T07:36:11;96640.09;;;1.64;77.99
3960;BME280;1994;48.640;8.894;2023-03-04T07:38:43;96647.69;;;1.80;77.64
3960;BME280;1994;48.640;8.894;2023-03-04T07:41:09;96646.00;;;1.95;76.77
3960;BME280;1994;48.640;8.894;2023-03-04T07:43:35;96646.56;;;2.13;76.39
3960;BME280;1994;48.640;8.894;2023-03-04T07:46:01;96644.38;;;2.32;75.98
3960;BME280;1994;48.640;8.894;2023-03-04T07:48:27;96654.34;;;2.87;74.75
3960;BME280;1994;48.640;8.894;2023-03-04T07:51:24;96654.81;;;3.05;74.01
3960;BME280;1994;48.640;8.894;2023-03-04T07:53:59;96660.56;;;3.07;74.40
3960;BME280;1994;48.640;8.894;2023-03-04T07:56:29;96659.81;;;2.84;75.54
3960;BME280;1994;48.640;8.894;2023-03-04T07:58:55;96671.19;;;2.59;76.84
3960;BME280;1994;48.640;8.894;2023-03-04T08:01:25;96670.19;;;2.68;77.70
3960;BME280;1994;48.640;8.894;2023-03-04T08:03:54;96679.72;;;2.74;77.51
3960;BME280;1994;48.640;8.894;2023-03-04T08:06:21;96670.19;;;2.68;77.58
3960;BME280;1994;48.640;8.894;2023-03-04T08:08:48;96670.28;;;2.52;78.54
3960;BME280;1994;48.640;8.894;2023-03-04T08:11:19;96670.19;;;2.15;80.23
3960;BME280;1994;48.640;8.894;2023-03-04T08:13:48;96672.16;;;2.05;81.00
3960;BME280;1994;48.640;8.894;2023-03-04T08:16:20;96681.78;;;1.95;81.87
3960;BME280;1994;48.640;8.894;2023-03-04T08:18:50;96682.38;;;2.05;81.87
3960;BME280;1994;48.640;8.894;2023-03-04T08:21:17;96677.69;;;1.86;82.53
3960;BME280;1994;48.640;8.894;2023-03-04T08:23:45;96670.63;;;1.88;83.10
3960;BME280;1994;48.640;8.894;2023-03-04T08:26:19;96681.84;;;1.79;82.82
3960;BME280;1994;48.640;8.894;2023-03-04T08:28:46;96684.44;;;1.71;83.42
3960;BME280;1994;48.640;8.894;2023-03-04T08:31:14;96685.88;;;1.65;84.13
3960;BME280;1994;48.640;8.894;2023-03-04T08:33:40;96695.63;;;1.62;84.75
3960;BME280;1994;48.640;8.894;2023-03-04T08:36:07;96692.59;;;1.58;85.63
3960;BME280;1994;48.640;8.894;2023-03-04T08:38:33;96694.03;;;1.61;86.16
3960;BME280;1994;48.640;8.894;2023-03-04T08:40:59;96693.06;;;1.70;86.03
3960;BME280;1994;48.640;8.894;2023-03-04T08:43:26;96700.41;;;1.65;85.55
3960;BME280;1994;48.640;8.894;2023-03-04T08:45:53;96703.59;;;1.67;84.96
3960;BME280;1994;48.640;8.894;2023-03-04T08:48:20;96700.06;;;1.68;85.16
3960;BME280;1994;48.640;8.894;2023-03-04T08:50:47;96700.06;;;1.76;85.16
3960;BME280;1994;48.640;8.894;2023-03-04T08:53:13;96709.16;;;1.70;84.99
3960;BME280;1994;48.640;8.894;2023-03-04T08:55:40;96701.69;;;1.69;84.87
3960;BME280;1994;48.640;8.894;2023-03-04T08:58:07;96707.38;;;1.79;84.75
3960;BME280;1994;48.640;8.894;2023-03-04T09:00:37;96699.28;;;1.67;85.20
3960;BME280;1994;48.640;8.894;2023-03-04T09:03:06;96710.22;;;1.84;84.62
3960;BME280;1994;48.640;8.894;2023-03-04T09:05:31;96705.13;;;1.84;84.75
3960;BME280;1994;48.640;8.894;2023-03-04T09:07:57;96714.56;;;1.83;84.67
3960;BME280;1994;48.640;8.894;2023-03-04T09:10:23;96708.03;;;1.81;84.39
3960;BME280;1994;48.640;8.894;2023-03-04T09:12:49;96711.06;;;1.76;84.62
3960;BME280;1994;48.640;8.894;2023-03-04T09:15:15;96709.16;;;1.78;84.48
3960;BME280;1994;48.640;8.894;2023-03-04T09:17:50;96703.22;;;1.86;84.47
3960;BME280;1994;48.640;8.894;2023-03-04T09:20:15;96707.16;;;1.96;83.37
3960;BME280;1994;48.640;8.894;2023-03-04T09:22:41;96707.66;;;1.92;84.04
3960;BME280;1994;48.640;8.894;2023-03-04T09:25:10;96705.06;;;2.00;84.32
3960;BME280;1994;48.640;8.894;2023-03-04T09:27:37;96712.63;;;2.24;83.48
3960;BME280;1994;48.640;8.894;2023-03-04T09:30:04;96708.75;;;2.28;82.64
3960;BME280;1994;48.640;8.894;2023-03-04T09:32:30;96711.81;;;2.23;82.48
3960;BME280;1994;48.640;8.894;2023-03-04T09:34:55;96710.16;;;2.38;82.37
3960;BME280;1994;48.640;8.894;2023-03-04T09:37:21;96713.69;;;2.37;81.47
3960;BME280;1994;48.640;8.894;2023-03-04T09:39:47;96707.16;;;2.27;81.31
3960;BME280;1994;48.640;8.894;2023-03-04T09:43:10;96702.34;;;2.32;80.83
3960;BME280;1994;48.640;8.894;2023-03-04T09:45:41;96708.09;;;2.34;80.97
3960;BME280;1994;48.640;8.894;2023-03-04T09:48:13;96708.44;;;2.31;80.46
3960;BME280;1994;48.640;8.894;2023-03-04T09:50:57;96709.31;;;2.46;80.05
3960;BME280;1994;48.640;8.894;2023-03-04T09:54:13;96703.19;;;2.77;79.42
3960;BME280;1994;48.640;8.894;2023-03-04T09:56:42;96706.06;;;2.97;78.26
3960;BME280;1994;48.640;8.894;2023-03-04T09:59:42;96709.25;;;2.99;77.88
3960;BME280;1994;48.640;8.894;2023-03-04T10:04:58;96704.34;;;3.12;77.28
3960;BME280;1994;48.640;8.894;2023-03-04T10:07:36;96699.25;;;3.12;75.89
3960;BME280;1994;48.640;8.894;2023-03-04T10:10:13;96702.91;;;2.72;77.15
3960;BME280;1994;48.640;8.894;2023-03-04T10:12:44;96701.69;;;2.83;77.14
3960;BME280;1994;48.640;8.894;2023-03-04T10:15:30;96708.22;;;3.08;76.91
3960;BME280;1994;48.640;8.894;2023-03-04T10:18:23;96708.03;;;2.95;76.19
3960;BME280;1994;48.640;8.894;2023-03-04T10:21:03;96702.81;;;3.03;76.45
3960;BME280;1994;48.640;8.894;2023-03-04T10:23:32;96701.97;;;3.10;76.50
3960;BME280;1994;48.640;8.894;2023-03-04T10:26:01;96695.44;;;3.22;75.65
3960;BME280;1994;48.640;8.894;2023-03-04T10:28:35;96698.31;;;3.05;75.68
3960;BME280;1994;48.640;8.894;2023-03-04T10:31:44;96693.72;;;3.37;75.49
3960;BME280;1994;48.640;8.894;2023-03-04T10:34:13;96700.09;;;3.41;74.76
3960;BME280;1994;48.640;8.894;2023-03-04T10:37:00;96700.53;;;3.45;73.91
3960;BME280;1994;48.640;8.894;2023-03-04T10:39:31;96693.56;;;3.68;73.79
3960;BME280;1994;48.640;8.894;2023-03-04T10:44:59;96690.13;;;3.61;72.75
3960;BME280;1994;48.640;8.894;2023-03-04T10:47:28;96694.69;;;3.80;72.47
3960;BME280;1994;48.640;8.894;2023-03-04T10:49:59;96691.00;;;3.68;72.39
3960;BME280;1994;48.640;8.894;2023-03-04T10:52:38;96686.94;;;3.88;72.09
3960;BME280;1994;48.640;8.894;2023-03-04T10:55:43;96683.31;;;3.82;71.04
3960;BME280;1994;48.640;8.894;2023-03-04T10:58:14;96691.69;;;3.91;71.45
3960;BME280;1994;48.640;8.894;2023-03-04T11:01:03;96673.72;;;4.20;71.43
3960;BME280;1994;48.640;8.894;2023-03-04T11:03:33;96682.78;;;4.37;70.75
3960;BME280;1994;48.640;8.894;2023-03-04T11:06:21;96674.06;;;4.52;69.77
3960;BME280;1994;48.640;8.894;2023-03-04T11:08:56;96679.53;;;4.28;69.28
3960;BME280;1994;48.640;8.894;2023-03-04T11:11:26;96672.56;;;4.58;68.41
3960;BME280;1994;48.640;8.894;2023-03-04T11:14:00;96669.84;;;4.45;68.05
3960;BME280;1994;48.640;8.894;2023-03-04T11:16:30;96667.16;;;4.53;68.19
3960;BME280;1994;48.640;8.894;2023-03-04T11:19:20;96666.06;;;4.62;67.72
3960;BME280;1994;48.640;8.894;2023-03-04T11:21:48;96661.81;;;4.69;67.34
3960;BME280;1994;48.640;8.894;2023-03-04T11:24:23;96664.47;;;4.61;66.25
3960;BME280;1994;48.640;8.894;2023-03-04T11:27:05;96660.94;;;4.62;66.68
3960;BME280;1994;48.640;8.894;2023-03-04T11:29:50;96654.78;;;4.77;66.43
3960;BME280;1994;48.640;8.894;2023-03-04T11:32:35;96655.53;;;4.78;66.26
3960;BME280;1994;48.640;8.894;2023-03-04T11:35:35;96648.06;;;5.04;66.34
3960;BME280;1994;48.640;8.894;2023-03-04T11:38:32;96643.91;;;5.03;65.26
3960;BME280;1994;48.640;8.894;2023-03-04T11:41:15;96640.72;;;5.01;65.42
3960;BME280;1994;48.640;8.894;2023-03-04T11:43:45;96643.66;;;5.19;65.60
3960;BME280;1994;48.640;8.894;2023-03-04T11:52:37;96640.75;;;7.34;58.85
3960;BME280;1994;48.640;8.894;2023-03-04T12:00:54;96630.56;;;6.29;60.53
3960;BME280;1994;48.640;8.894;2023-03-04T12:12:50;96615.16;;;6.61;58.35
3960;BME280;1994;48.640;8.894;2023-03-04T12:19:25;96596.00;;;6.96;58.51
3960;BME280;1994;48.640;8.894;2023-03-04T12:39:39;96566.75;;;7.48;55.96
3960;BME280;1994;48.640;8.894;2023-03-04T12:43:00;96567.59;;;7.42;56.59
3960;BME280;1994;48.640;8.894;2023-03-04T12:46:16;96556.84;;;7.45;56.38
3960;BME280;1994;48.640;8.894;2023-03-04T12:48:55;96559.09;;;7.28;55.68
3960;BME280;1994;48.640;8.894;2023-03-04T12:51:35;96553.56;;;7.12;56.04
3960;BME280;1994;48.640;8.894;2023-03-04T12:54:29;96559.75;;;6.98;57.27
3960;BME280;1994;48.640;8.894;2023-03-04T12:57:15;96551.94;;;7.24;56.30
3960;BME280;1994;48.640;8.894;2023-03-04T13:00:16;96551.94;;;7.24;55.58
3960;BME280;1994;48.640;8.894;2023-03-04T13:03:12;96557.91;;;7.31;56.97
3960;BME280;1994;48.640;8.894;2023-03-04T13:09:07;96547.81;;;7.80;54.71
3960;BME280;1994;48.640;8.894;2023-03-04T13:11:52;96550.09;;;8.01;54.09
3960;BME280;1994;48.640;8.894;2023-03-04T13:14:26;96547.66;;;8.06;53.70
3960;BME280;1994;48.640;8.894;2023-03-04T13:20:38;96542.66;;;8.48;52.76
3960;BME280;1994;48.640;8.894;2023-03-04T13:28:34;96543.00;;;7.90;53.64
3960;BME280;1994;48.640;8.894;2023-03-04T13:31:24;96545.72;;;7.95;53.95
3960;BME280;1994;48.640;8.894;2023-03-04T13:33:55;96544.41;;;8.23;54.41
3960;BME280;1994;48.640;8.894;2023-03-04T13:36:50;96533.78;;;8.07;52.68
3960;BME280;1994;48.640;8.894;2023-03-04T13:41:49;96544.97;;;7.94;54.12
3960;BME280;1994;48.640;8.894;2023-03-04T13:47:19;96543.56;;;7.48;54.36
3960;BME280;1994;48.640;8.894;2023-03-04T13:49:47;96551.16;;;7.30;55.11
3960;BME280;1994;48.640;8.894;2023-03-04T13:52:40;96542.69;;;7.03;55.46
3960;BME280;1994;48.640;8.894;2023-03-04T13:55:37;96542.91;;;6.89;56.74
3960;BME280;1994;48.640;8.894;2023-03-04T13:58:24;96542.09;;;6.95;56.35
3960;BME280;1994;48.640;8.894;2023-03-04T14:00:55;96545.28;;;6.84;56.50
3960;BME280;1994;48.640;8.894;2023-03-04T14:03:29;96542.72;;;6.71;56.42
3960;BME280;1994;48.640;8.894;2023-03-04T14:08:47;96538.16;;;6.73;57.65
3960;BME280;1994;48.640;8.894;2023-03-04T14:11:38;96540.56;;;6.55;57.08
3960;BME280;1994;48.640;8.894;2023-03-04T14:14:14;96540.13;;;6.58;57.13
3960;BME280;1994;48.640;8.894;2023-03-04T14:17:02;96544.31;;;6.72;57.80
3960;BME280;1994;48.640;8.894;2023-03-04T14:19:38;96539.34;;;6.77;57.83
3960;BME280;1994;48.640;8.894;2023-03-04T14:22:40;96536.94;;;6.95;57.40
3960;BME280;1994;48.640;8.894;2023-03-04T14:25:24;96543.72;;;6.89;57.62
3960;BME280;1994;48.640;8.894;2023-03-04T14:28:16;96535.78;;;6.84;57.54
3960;BME280;1994;48.640;8.894;2023-03-04T14:30:54;96532.63;;;6.76;56.98
3960;BME280;1994;48.640;8.894;2023-03-04T14:33:27;96526.09;;;6.41;58.11
3960;BME280;1994;48.640;8.894;2023-03-04T14:35:58;96532.44;;;6.45;58.41
3960;BME280;1994;48.640;8.894;2023-03-04T14:38:36;96528.06;;;6.32;58.66
3960;BME280;1994;48.640;8.894;2023-03-04T14:41:14;96527.47;;;6.24;59.00
3960;BME280;1994;48.640;8.894;2023-03-04T14:44:00;96518.72;;;5.92;59.39
3960;BME280;1994;48.640;8.894;2023-03-04T14:46:39;96517.91;;;5.92;59.73
3960;BME280;1994;48.640;8.894;2023-03-04T14:49:11;96515.13;;;5.87;60.27
3960;BME280;1994;48.640;8.894;2023-03-04T14:51:44;96515.00;;;5.61;61.21
3960;BME280;1994;48.640;8.894;2023-03-04T14:57:15;96512.38;;;5.35;61.71
3960;BME280;1994;48.640;8.894;2023-03-04T14:59:47;96512.63;;;5.53;61.97
3960;BME280;1994;48.640;8.894;2023-03-04T15:02:34;96513.72;;;5.31;62.19
3960;BME280;1994;48.640;8.894;2023-03-04T15:05:14;96511.69;;;5.20;62.40
3960;BME280;1994;48.640;8.894;2023-03-04T15:07:42;96513.72;;;5.31;62.67
3960;BME280;1994;48.640;8.894;2023-03-04T15:10:11;96513.75;;;5.37;62.06
3960;BME280;1994;48.640;8.894;2023-03-04T15:12:37;96525.13;;;5.15;62.48
3960;BME280;1994;48.640;8.894;2023-03-04T15:15:42;96518.88;;;5.31;62.08